sensor_id;sensor_type;location;lat;lon;timestamp;temperature;humidity
76893;DHT22;65854;51.466;7.260;2023-02-02T00:01:19;4.40;99.90
76893;DHT22;65854;51.466;7.260;2023-02-02T00:03:45;4.40;99.90
76893;DHT22;65854;51.466;7.260;2023-02-02T00:06:11;4.40;99.90
76893;DHT22;65854;51.466;7.260;2023-02-02T00:08:37;4.40;99.90
76893;DHT22;65854;51.466;7.260;2023-02-02T00:11:04;4.40;99.90
76893;DHT22;65854;51.466;7.260;2023-02-02T00:13:30;4.40;99.90
76893;DHT22;65854;51.466;7.260;2023-02-02T00:15:55;4.40;99.90
76893;DHT22;65854;51.466;7.260;2023-02-02T00:18:21;4.30;99.90
76893;DHT22;65854;51.466;7.260;2023-02-02T00:20:46;4.40;99.90
76893;DHT22;65854;51.466;7.260;2023-02-02T00:23:15;4.30;99.90
76893;DHT22;65854;51.466;7.260;2023-02-02T00:25:41;4.30;99.90
76893;DHT22;65854;51.466;7.260;2023-02-02T00:28:07;4.40;99.90
76893;DHT22;65854;51.466;7.260;2023-02-02T00:30:32;4.40;99.90
76893;DHT22;65854;51.466;7.260;2023-02-02T00:32:58;4.40;99.90
76893;DHT22;65854;51.466;7.260;2023-02-02T00:35:23;4.40;99.90
76893;DHT22;65854;51.466;7.260;2023-02-02T00:37:49;4.50;99.90
76893;DHT22;65854;51.466;7.260;2023-02-02T00:40:15;4.50;99.90
76893;DHT22;65854;51.466;7.260;2023-02-02T00:42:40;4.50;99.90
76893;DHT22;65854;51.466;7.260;2023-02-02T00:45:12;4.50;99.90
76893;DHT22;65854;51.466;7.260;2023-02-02T00:47:45;4.50;99.90
76893;DHT22;65854;51.466;7.260;2023-02-02T00:50:14;4.50;99.90
76893;DHT22;65854;51.466;7.260;2023-02-02T00:52:40;4.50;99.90
76893;DHT22;65854;51.466;7.260;2023-02-02T00:55:06;4.50;99.90
76893;DHT22;65854;51.466;7.260;2023-02-02T00:57:32;4.60;99.90
76893;DHT22;65854;51.466;7.260;2023-02-02T00:59:58;4.60;99.90
76893;DHT22;65854;51.466;7.260;2023-02-02T01:02:24;4.60;99.90
76893;DHT22;65854;51.466;7.260;2023-02-02T01:04:49;4.60;99.90
76893;DHT22;65854;51.466;7.260;2023-02-02T01:07:15;4.70;99.90
76893;DHT22;65854;51.466;7.260;2023-02-02T01:09:40;4.70;99.90
76893;DHT22;65854;51.466;7.260;2023-02-02T01:12:06;4.70;99.90
76893;DHT22;65854;51.466;7.260;2023-02-02T01:14:31;4.70;99.90
76893;DHT22;65854;51.466;7.260;2023-02-02T01:16:57;4.70;99.90
76893;DHT22;65854;51.466;7.260;2023-02-02T01:19:22;4.80;99.90
76893;DHT22;65854;51.466;7.260;2023-02-02T01:21:48;4.80;99.90
76893;DHT22;65854;51.466;7.260;2023-02-02T01:24:15;4.80;99.90
76893;DHT22;65854;51.466;7.260;2023-02-02T01:26:41;4.80;99.90
76893;DHT22;65854;51.466;7.260;2023-02-02T01:29:06;4.90;99.90
76893;DHT22;65854;51.466;7.260;2023-02-02T01:31:32;4.90;99.90
76893;DHT22;65854;51.466;7.260;2023-02-02T01:33:58;4.90;99.90
76893;DHT22;65854;51.466;7.260;2023-02-02T01:36:24;4.90;99.90
76893;DHT22;65854;51.466;7.260;2023-02-02T01:38:50;5.00;99.90
76893;DHT22;65854;51.466;7.260;2023-02-02T01:41:19;5.00;99.90
76893;DHT22;65854;51.466;7.260;2023-02-02T01:46:16;5.00;99.90
76893;DHT22;65854;51.466;7.260;2023-02-02T01:49:25;5.00;99.90
76893;DHT22;65854;51.466;7.260;2023-02-02T01:51:51;5.00;99.90
76893;DHT22;65854;51.466;7.260;2023-02-02T01:54:30;5.10;99.90
76893;DHT22;65854;51.466;7.260;2023-02-02T01:57:00;5.10;99.90
76893;DHT22;65854;51.466;7.260;2023-02-02T01:59:27;5.10;99.90
76893;DHT22;65854;51.466;7.260;2023-02-02T02:01:54;5.10;99.90
76893;DHT22;65854;51.466;7.260;2023-02-02T02:04:21;5.20;99.90
76893;DHT22;65854;51.466;7.260;2023-02-02T02:06:47;5.20;99.90
76893;DHT22;65854;51.466;7.260;2023-02-02T02:09:13;5.30;99.90
76893;DHT22;65854;51.466;7.260;2023-02-02T02:11:39;5.30;99.90
76893;DHT22;65854;51.466;7.260;2023-02-02T02:14:08;5.30;99.90
76893;DHT22;65854;51.466;7.260;2023-02-02T02:26:39;5.40;99.90
76893;DHT22;65854;51.466;7.260;2023-02-02T02:29:38;5.40;99.90
76893;DHT22;65854;51.466;7.260;2023-02-02T02:32:31;5.40;99.90
76893;DHT22;65854;51.466;7.260;2023-02-02T02:35:14;5.40;99.90
76893;DHT22;65854;51.466;7.260;2023-02-02T02:38:20;5.40;99.90
76893;DHT22;65854;51.466;7.260;2023-02-02T02:40:52;5.40;99.90
76893;DHT22;65854;51.466;7.260;2023-02-02T02:43:23;5.50;99.90
76893;DHT22;65854;51.466;7.260;2023-02-02T02:45:51;5.50;99.90
76893;DHT22;65854;51.466;7.260;2023-02-02T02:48:18;5.50;99.90
76893;DHT22;65854;51.466;7.260;2023-02-02T02:50:43;5.50;99.90
76893;DHT22;65854;51.466;7.260;2023-02-02T02:53:16;5.50;99.90
76893;DHT22;65854;51.466;7.260;2023-02-02T02:58:49;5.50;99.90
76893;DHT22;65854;51.466;7.260;2023-02-02T03:01:21;5.40;99.90
76893;DHT22;65854;51.466;7.260;2023-02-02T03:04:14;5.50;99.90
76893;DHT22;65854;51.466;7.260;2023-02-02T03:07:00;5.40;99.90
76893;DHT22;65854;51.466;7.260;2023-02-02T03:09:33;5.40;99.90
76893;DHT22;65854;51.466;7.260;2023-02-02T03:12:00;5.40;99.90
76893;DHT22;65854;51.466;7.260;2023-02-02T03:14:26;5.40;99.90
76893;DHT22;65854;51.466;7.260;2023-02-02T03:16:51;5.40;99.90
76893;DHT22;65854;51.466;7.260;2023-02-02T03:19:17;5.40;99.90
76893;DHT22;65854;51.466;7.260;2023-02-02T03:21:43;5.40;99.90
76893;DHT22;65854;51.466;7.260;2023-02-02T03:24:08;5.40;99.90
76893;DHT22;65854;51.466;7.260;2023-02-02T03:26:34;5.40;99.90
76893;DHT22;65854;51.466;7.260;2023-02-02T03:29:00;5.40;99.90
76893;DHT22;65854;51.466;7.260;2023-02-02T03:31:27;5.40;99.90
76893;DHT22;65854;51.466;7.260;2023-02-02T03:33:54;5.40;99.90
76893;DHT22;65854;51.466;7.260;2023-02-02T03:36:20;5.40;99.90
76893;DHT22;65854;51.466;7.260;2023-02-02T03:38:46;5.30;99.90
76893;DHT22;65854;51.466;7.260;2023-02-02T03:41:11;5.30;99.90
76893;DHT22;65854;51.466;7.260;2023-02-02T03:43:37;5.30;99.90
76893;DHT22;65854;51.466;7.260;2023-02-02T03:46:04;5.30;99.90
76893;DHT22;65854;51.466;7.260;2023-02-02T03:48:30;5.30;99.90
76893;DHT22;65854;51.466;7.260;2023-02-02T03:50:56;5.40;99.90
76893;DHT22;65854;51.466;7.260;2023-02-02T03:53:22;5.40;99.90
76893;DHT22;65854;51.466;7.260;2023-02-02T03:55:48;5.30;99.90
76893;DHT22;65854;51.466;7.260;2023-02-02T03:58:14;5.40;99.90
76893;DHT22;65854;51.466;7.260;2023-02-02T04:00:39;5.40;99.90
76893;DHT22;65854;51.466;7.260;2023-02-02T04:03:05;5.40;99.90
76893;DHT22;65854;51.466;7.260;2023-02-02T04:05:30;5.40;99.90
76893;DHT22;65854;51.466;7.260;2023-02-02T04:07:56;5.40;99.90
76893;DHT22;65854;51.466;7.260;2023-02-02T04:10:22;5.40;99.90
76893;DHT22;65854;51.466;7.260;2023-02-02T04:12:47;5.50;99.90
76893;DHT22;65854;51.466;7.260;2023-02-02T04:15:13;5.50;99.90
76893;DHT22;65854;51.466;7.260;2023-02-02T04:17:38;5.50;99.90
76893;DHT22;65854;51.466;7.260;2023-02-02T04:20:05;5.50;99.90
76893;DHT22;65854;51.466;7.260;2023-02-02T04:22:30;5.50;99.90
76893;DHT22;65854;51.466;7.260;2023-02-02T04:24:56;5.50;99.90
76893;DHT22;65854;51.466;7.260;2023-02-02T04:27:22;5.50;99.90
76893;DHT22;65854;51.466;7.260;2023-02-02T04:29:48;5.50;99.90
76893;DHT22;65854;51.466;7.260;2023-02-02T04:32:17;5.50;99.90
76893;DHT22;65854;51.466;7.260;2023-02-02T04:34:43;5.50;99.90
76893;DHT22;65854;51.466;7.260;2023-02-02T04:37:10;5.50;99.90
76893;DHT22;65854;51.466;7.260;2023-02-02T04:39:35;5.50;99.90
76893;DHT22;65854;51.466;7.260;2023-02-02T04:42:02;5.50;99.90
76893;DHT22;65854;51.466;7.260;2023-02-02T04:44:27;5.60;99.90
76893;DHT22;65854;51.466;7.260;2023-02-02T04:46:53;5.60;99.90
76893;DHT22;65854;51.466;7.260;2023-02-02T04:49:19;5.50;99.90
76893;DHT22;65854;51.466;7.260;2023-02-02T04:51:45;5.50;99.90
76893;DHT22;65854;51.466;7.260;2023-02-02T04:54:10;5.50;99.90
76893;DHT22;65854;51.466;7.260;2023-02-02T04:56:36;5.50;99.90
76893;DHT22;65854;51.466;7.260;2023-02-02T04:59:01;5.60;99.90
76893;DHT22;65854;51.466;7.260;2023-02-02T05:01:27;5.60;99.90
76893;DHT22;65854;51.466;7.260;2023-02-02T05:03:55;5.60;99.90
76893;DHT22;65854;51.466;7.260;2023-02-02T05:06:20;5.60;99.90
76893;DHT22;65854;51.466;7.260;2023-02-02T05:08:46;5.70;99.90
76893;DHT22;65854;51.466;7.260;2023-02-02T05:11:15;5.70;99.90
76893;DHT22;65854;51.466;7.260;2023-02-02T05:13:50;5.70;99.90
76893;DHT22;65854;51.466;7.260;2023-02-02T05:16:16;5.70;99.90
76893;DHT22;65854;51.466;7.260;2023-02-02T05:18:42;5.70;99.90
76893;DHT22;65854;51.466;7.260;2023-02-02T05:21:08;5.70;99.90
76893;DHT22;65854;51.466;7.260;2023-02-02T05:23:34;5.70;99.90
76893;DHT22;65854;51.466;7.260;2023-02-02T05:25:59;5.60;99.90
76893;DHT22;65854;51.466;7.260;2023-02-02T05:28:25;5.70;99.90
76893;DHT22;65854;51.466;7.260;2023-02-02T05:30:51;5.70;99.90
76893;DHT22;65854;51.466;7.260;2023-02-02T05:33:17;5.70;99.90
76893;DHT22;65854;51.466;7.260;2023-02-02T05:35:44;5.70;99.90
76893;DHT22;65854;51.466;7.260;2023-02-02T05:38:10;5.70;99.90
76893;DHT22;65854;51.466;7.260;2023-02-02T05:40:39;5.70;99.90
76893;DHT22;65854;51.466;7.260;2023-02-02T05:43:04;5.70;99.90
76893;DHT22;65854;51.466;7.260;2023-02-02T05:45:30;5.70;99.90
76893;DHT22;65854;51.466;7.260;2023-02-02T05:47:55;5.70;99.90
76893;DHT22;65854;51.466;7.260;2023-02-02T05:50:21;5.70;99.90
76893;DHT22;65854;51.466;7.260;2023-02-02T05:52:47;5.70;99.90
76893;DHT22;65854;51.466;7.260;2023-02-02T05:55:13;5.70;99.90
76893;DHT22;65854;51.466;7.260;2023-02-02T05:57:39;5.70;99.90
76893;DHT22;65854;51.466;7.260;2023-02-02T06:00:05;5.70;99.90
76893;DHT22;65854;51.466;7.260;2023-02-02T06:02:30;5.70;99.90
76893;DHT22;65854;51.466;7.260;2023-02-02T06:04:56;5.70;99.90
76893;DHT22;65854;51.466;7.260;2023-02-02T06:07:22;5.70;99.90
76893;DHT22;65854;51.466;7.260;2023-02-02T06:09:47;5.70;99.90
76893;DHT22;65854;51.466;7.260;2023-02-02T06:12:13;5.70;99.90
76893;DHT22;65854;51.466;7.260;2023-02-02T06:14:38;5.70;99.90
76893;DHT22;65854;51.466;7.260;2023-02-02T06:17:04;5.70;99.90
76893;DHT22;65854;51.466;7.260;2023-02-02T06:19:31;5.70;99.90
76893;DHT22;65854;51.466;7.260;2023-02-02T06:21:56;5.70;99.90
76893;DHT22;65854;51.466;7.260;2023-02-02T06:24:22;5.70;99.90
76893;DHT22;65854;51.466;7.260;2023-02-02T06:26:49;5.70;99.90
76893;DHT22;65854;51.466;7.260;2023-02-02T06:29:14;5.70;99.90
76893;DHT22;65854;51.466;7.260;2023-02-02T06:31:40;5.80;99.90
76893;DHT22;65854;51.466;7.260;2023-02-02T06:34:06;5.80;99.90
76893;DHT22;65854;51.466;7.260;2023-02-02T06:36:33;5.80;99.90
76893;DHT22;65854;51.466;7.260;2023-02-02T06:38:58;5.80;99.90
76893;DHT22;65854;51.466;7.260;2023-02-02T06:41:24;5.80;99.90
76893;DHT22;65854;51.466;7.260;2023-02-02T06:43:50;5.80;99.90
76893;DHT22;65854;51.466;7.260;2023-02-02T06:46:16;5.80;99.90
76893;DHT22;65854;51.466;7.260;2023-02-02T06:48:41;5.80;99.90
76893;DHT22;65854;51.466;7.260;2023-02-02T06:51:07;5.80;99.90
76893;DHT22;65854;51.466;7.260;2023-02-02T06:53:34;5.80;99.90
76893;DHT22;65854;51.466;7.260;2023-02-02T06:56:05;5.80;99.90
76893;DHT22;65854;51.466;7.260;2023-02-02T06:58:32;5.80;99.90
76893;DHT22;65854;51.466;7.260;2023-02-02T07:01:06;5.80;99.90
76893;DHT22;65854;51.466;7.260;2023-02-02T07:03:32;5.80;99.90
76893;DHT22;65854;51.466;7.260;2023-02-02T07:05:58;5.80;99.90
76893;DHT22;65854;51.466;7.260;2023-02-02T07:08:24;5.80;99.90
76893;DHT22;65854;51.466;7.260;2023-02-02T07:10:50;5.90;99.90
76893;DHT22;65854;51.466;7.260;2023-02-02T07:13:15;5.80;99.90
76893;DHT22;65854;51.466;7.260;2023-02-02T07:15:41;5.80;99.90
76893;DHT22;65854;51.466;7.260;2023-02-02T07:18:06;5.90;99.90
76893;DHT22;65854;51.466;7.260;2023-02-02T07:20:32;5.80;99.90
76893;DHT22;65854;51.466;7.260;2023-02-02T07:22:58;5.90;99.90
76893;DHT22;65854;51.466;7.260;2023-02-02T07:25:23;5.80;99.90
76893;DHT22;65854;51.466;7.260;2023-02-02T07:27:53;5.80;99.90
76893;DHT22;65854;51.466;7.260;2023-02-02T07:30:19;5.90;99.90
76893;DHT22;65854;51.466;7.260;2023-02-02T07:32:48;5.90;99.90
76893;DHT22;65854;51.466;7.260;2023-02-02T07:35:15;5.90;99.90
76893;DHT22;65854;51.466;7.260;2023-02-02T07:37:41;5.90;99.90
76893;DHT22;65854;51.466;7.260;2023-02-02T07:40:08;5.90;99.90
76893;DHT22;65854;51.466;7.260;2023-02-02T07:42:34;5.90;99.90
76893;DHT22;65854;51.466;7.260;2023-02-02T07:44:59;5.90;99.90
76893;DHT22;65854;51.466;7.260;2023-02-02T07:47:25;5.90;99.90
76893;DHT22;65854;51.466;7.260;2023-02-02T07:49:51;5.80;99.90
76893;DHT22;65854;51.466;7.260;2023-02-02T07:52:16;5.90;99.90
76893;DHT22;65854;51.466;7.260;2023-02-02T07:54:42;5.90;99.90
76893;DHT22;65854;51.466;7.260;2023-02-02T07:57:07;5.90;99.90
76893;DHT22;65854;51.466;7.260;2023-02-02T07:59:33;5.90;99.90
76893;DHT22;65854;51.466;7.260;2023-02-02T08:01:58;5.90;99.90
76893;DHT22;65854;51.466;7.260;2023-02-02T08:04:24;5.90;99.90
76893;DHT22;65854;51.466;7.260;2023-02-02T08:06:50;5.90;99.90
76893;DHT22;65854;51.466;7.260;2023-02-02T08:09:15;5.90;99.90
76893;DHT22;65854;51.466;7.260;2023-02-02T08:11:41;5.90;99.90
76893;DHT22;65854;51.466;7.260;2023-02-02T08:14:09;6.00;99.90
76893;DHT22;65854;51.466;7.260;2023-02-02T08:16:36;6.00;99.90
76893;DHT22;65854;51.466;7.260;2023-02-02T08:19:01;6.00;99.90
76893;DHT22;65854;51.466;7.260;2023-02-02T08:21:27;6.00;99.90
76893;DHT22;65854;51.466;7.260;2023-02-02T08:23:53;6.00;99.90
76893;DHT22;65854;51.466;7.260;2023-02-02T08:26:21;6.00;99.90
76893;DHT22;65854;51.466;7.260;2023-02-02T08:28:50;6.00;99.90
76893;DHT22;65854;51.466;7.260;2023-02-02T08:31:22;6.00;99.90
76893;DHT22;65854;51.466;7.260;2023-02-02T08:33:48;6.00;99.90
76893;DHT22;65854;51.466;7.260;2023-02-02T08:36:16;6.00;99.90
76893;DHT22;65854;51.466;7.260;2023-02-02T08:38:42;6.00;99.90
76893;DHT22;65854;51.466;7.260;2023-02-02T08:41:10;6.00;99.90
76893;DHT22;65854;51.466;7.260;2023-02-02T08:43:37;5.90;99.90
76893;DHT22;65854;51.466;7.260;2023-02-02T08:46:03;6.00;99.90
76893;DHT22;65854;51.466;7.260;2023-02-02T08:48:28;6.00;99.90
76893;DHT22;65854;51.466;7.260;2023-02-02T08:50:55;6.00;99.90
76893;DHT22;65854;51.466;7.260;2023-02-02T08:53:21;6.00;99.90
76893;DHT22;65854;51.466;7.260;2023-02-02T08:55:47;6.00;99.90
76893;DHT22;65854;51.466;7.260;2023-02-02T08:58:13;6.10;99.90
76893;DHT22;65854;51.466;7.260;2023-02-02T09:00:39;6.10;99.90
76893;DHT22;65854;51.466;7.260;2023-02-02T09:03:05;6.00;99.90
76893;DHT22;65854;51.466;7.260;2023-02-02T09:05:30;6.10;99.90
76893;DHT22;65854;51.466;7.260;2023-02-02T09:07:59;6.10;99.90
76893;DHT22;65854;51.466;7.260;2023-02-02T09:10:24;6.10;99.90
76893;DHT22;65854;51.466;7.260;2023-02-02T09:12:50;6.10;99.90
76893;DHT22;65854;51.466;7.260;2023-02-02T09:15:15;6.10;99.90
76893;DHT22;65854;51.466;7.260;2023-02-02T09:17:41;6.10;99.90
76893;DHT22;65854;51.466;7.260;2023-02-02T09:20:07;6.10;99.90
76893;DHT22;65854;51.466;7.260;2023-02-02T09:22:32;6.10;99.90
76893;DHT22;65854;51.466;7.260;2023-02-02T09:24:58;6.10;99.90
76893;DHT22;65854;51.466;7.260;2023-02-02T09:27:23;6.10;99.90
76893;DHT22;65854;51.466;7.260;2023-02-02T09:29:49;6.10;99.90
76893;DHT22;65854;51.466;7.260;2023-02-02T09:32:16;6.10;99.90
76893;DHT22;65854;51.466;7.260;2023-02-02T09:34:42;6.10;99.90
76893;DHT22;65854;51.466;7.260;2023-02-02T09:37:07;6.10;99.90
76893;DHT22;65854;51.466;7.260;2023-02-02T09:39:33;6.10;99.90
76893;DHT22;65854;51.466;7.260;2023-02-02T09:42:04;6.10;99.90
76893;DHT22;65854;51.466;7.260;2023-02-02T09:44:49;6.20;99.90
76893;DHT22;65854;51.466;7.260;2023-02-02T09:50:12;6.20;99.90
76893;DHT22;65854;51.466;7.260;2023-02-02T09:52:38;6.20;99.90
76893;DHT22;65854;51.466;7.260;2023-02-02T09:55:26;6.20;99.90
76893;DHT22;65854;51.466;7.260;2023-02-02T09:57:59;6.20;99.90
76893;DHT22;65854;51.466;7.260;2023-02-02T10:00:33;6.20;99.90
76893;DHT22;65854;51.466;7.260;2023-02-02T10:03:21;6.30;99.90
76893;DHT22;65854;51.466;7.260;2023-02-02T10:06:17;6.20;99.90
76893;DHT22;65854;51.466;7.260;2023-02-02T10:08:59;6.20;99.90
76893;DHT22;65854;51.466;7.260;2023-02-02T10:11:34;6.20;99.90
76893;DHT22;65854;51.466;7.260;2023-02-02T10:14:05;6.20;99.90
76893;DHT22;65854;51.466;7.260;2023-02-02T10:16:32;6.20;99.90
76893;DHT22;65854;51.466;7.260;2023-02-02T10:19:09;6.20;99.90
76893;DHT22;65854;51.466;7.260;2023-02-02T10:21:53;6.20;99.90
76893;DHT22;65854;51.466;7.260;2023-02-02T10:24:21;6.30;99.90
76893;DHT22;65854;51.466;7.260;2023-02-02T10:26:51;6.30;99.90
76893;DHT22;65854;51.466;7.260;2023-02-02T10:29:23;6.30;99.90
76893;DHT22;65854;51.466;7.260;2023-02-02T10:32:14;6.20;99.90
76893;DHT22;65854;51.466;7.260;2023-02-02T10:43:56;6.20;99.90
76893;DHT22;65854;51.466;7.260;2023-02-02T10:46:29;6.20;99.90
76893;DHT22;65854;51.466;7.260;2023-02-02T10:51:40;6.20;99.90
76893;DHT22;65854;51.466;7.260;2023-02-02T10:54:32;6.20;99.90
76893;DHT22;65854;51.466;7.260;2023-02-02T10:56:59;6.20;99.90
76893;DHT22;65854;51.466;7.260;2023-02-02T10:59:31;6.20;99.90
76893;DHT22;65854;51.466;7.260;2023-02-02T11:01:57;6.30;99.90
76893;DHT22;65854;51.466;7.260;2023-02-02T11:04:23;6.30;99.90
76893;DHT22;65854;51.466;7.260;2023-02-02T11:07:09;6.20;99.90
76893;DHT22;65854;51.466;7.260;2023-02-02T11:09:40;6.30;99.90
76893;DHT22;65854;51.466;7.260;2023-02-02T11:12:17;6.20;99.90
76893;DHT22;65854;51.466;7.260;2023-02-02T11:14:46;6.20;99.90
76893;DHT22;65854;51.466;7.260;2023-02-02T11:17:24;6.20;99.90
76893;DHT22;65854;51.466;7.260;2023-02-02T11:19:50;6.30;99.90
76893;DHT22;65854;51.466;7.260;2023-02-02T11:22:42;6.30;99.90
76893;DHT22;65854;51.466;7.260;2023-02-02T11:25:30;6.30;99.90
76893;DHT22;65854;51.466;7.260;2023-02-02T11:30:57;6.30;99.90
76893;DHT22;65854;51.466;7.260;2023-02-02T11:33:34;6.30;99.90
76893;DHT22;65854;51.466;7.260;2023-02-02T11:36:03;6.30;99.90
76893;DHT22;65854;51.466;7.260;2023-02-02T11:38:29;6.30;99.90
76893;DHT22;65854;51.466;7.260;2023-02-02T11:41:02;6.30;99.90
76893;DHT22;65854;51.466;7.260;2023-02-02T11:43:33;6.30;99.90
76893;DHT22;65854;51.466;7.260;2023-02-02T11:46:12;6.30;99.90
76893;DHT22;65854;51.466;7.260;2023-02-02T11:48:55;6.30;99.90
76893;DHT22;65854;51.466;7.260;2023-02-02T11:51:24;6.30;99.90
76893;DHT22;65854;51.466;7.260;2023-02-02T11:54:04;6.30;99.90
76893;DHT22;65854;51.466;7.260;2023-02-02T11:56:35;6.30;99.90
76893;DHT22;65854;51.466;7.260;2023-02-02T11:59:01;6.30;99.90
76893;DHT22;65854;51.466;7.260;2023-02-02T12:01:38;6.30;99.90
76893;DHT22;65854;51.466;7.260;2023-02-02T12:06:42;6.30;99.90
76893;DHT22;65854;51.466;7.260;2023-02-02T12:09:13;6.30;99.90
76893;DHT22;65854;51.466;7.260;2023-02-02T12:22:48;6.30;99.90
76893;DHT22;65854;51.466;7.260;2023-02-02T12:31:08;6.40;99.90
76893;DHT22;65854;51.466;7.260;2023-02-02T12:48:12;6.30;99.90
76893;DHT22;65854;51.466;7.260;2023-02-02T12:57:06;6.40;99.90
76893;DHT22;65854;51.466;7.260;2023-02-02T13:02:20;6.30;99.90
76893;DHT22;65854;51.466;7.260;2023-02-02T13:05:21;6.30;99.90
76893;DHT22;65854;51.466;7.260;2023-02-02T13:07:54;6.30;99.90
76893;DHT22;65854;51.466;7.260;2023-02-02T13:10:37;6.40;99.90
76893;DHT22;65854;51.466;7.260;2023-02-02T13:13:25;6.30;99.90
76893;DHT22;65854;51.466;7.260;2023-02-02T13:15:58;6.30;99.90
76893;DHT22;65854;51.466;7.260;2023-02-02T13:18:48;6.40;99.90
76893;DHT22;65854;51.466;7.260;2023-02-02T13:21:19;6.40;99.90
76893;DHT22;65854;51.466;7.260;2023-02-02T13:23:49;6.40;99.90
76893;DHT22;65854;51.466;7.260;2023-02-02T13:26:35;6.30;99.90
76893;DHT22;65854;51.466;7.260;2023-02-02T13:32:00;6.40;99.90
76893;DHT22;65854;51.466;7.260;2023-02-02T13:34:56;6.40;99.90
76893;DHT22;65854;51.466;7.260;2023-02-02T13:37:45;6.40;99.90
76893;DHT22;65854;51.466;7.260;2023-02-02T13:40:32;6.40;99.90
76893;DHT22;65854;51.466;7.260;2023-02-02T13:43:24;6.50;99.90
76893;DHT22;65854;51.466;7.260;2023-02-02T13:51:52;6.40;99.90
76893;DHT22;65854;51.466;7.260;2023-02-02T13:54:49;6.50;99.90
76893;DHT22;65854;51.466;7.260;2023-02-02T14:00:19;6.40;99.90
76893;DHT22;65854;51.466;7.260;2023-02-02T14:02:54;6.40;99.90
76893;DHT22;65854;51.466;7.260;2023-02-02T14:05:36;6.40;99.90
76893;DHT22;65854;51.466;7.260;2023-02-02T14:10:37;6.50;99.90
76893;DHT22;65854;51.466;7.260;2023-02-02T14:13:17;6.50;99.90
76893;DHT22;65854;51.466;7.260;2023-02-02T14:16:03;6.50;99.90
76893;DHT22;65854;51.466;7.260;2023-02-02T14:18:54;6.50;99.90
76893;DHT22;65854;51.466;7.260;2023-02-02T14:23:59;6.50;99.90
76893;DHT22;65854;51.466;7.260;2023-02-02T14:26:46;6.50;99.90
76893;DHT22;65854;51.466;7.260;2023-02-02T14:31:55;6.50;99.90
76893;DHT22;65854;51.466;7.260;2023-02-02T14:48:01;6.50;99.90
76893;DHT22;65854;51.466;7.260;2023-02-02T14:53:06;6.50;99.90
76893;DHT22;65854;51.466;7.260;2023-02-02T14:56:03;6.50;99.90
76893;DHT22;65854;51.466;7.260;2023-02-02T15:01:22;6.50;99.90
76893;DHT22;65854;51.466;7.260;2023-02-02T15:03:49;6.50;99.90
76893;DHT22;65854;51.466;7.260;2023-02-02T15:06:38;6.50;99.90
76893;DHT22;65854;51.466;7.260;2023-02-02T15:28:19;6.50;99.90
76893;DHT22;65854;51.466;7.260;2023-02-02T15:30:50;6.50;99.90
76893;DHT22;65854;51.466;7.260;2023-02-02T15:35:46;6.50;99.90
76893;DHT22;65854;51.466;7.260;2023-02-02T15:38:23;6.50;99.90
76893;DHT22;65854;51.466;7.260;2023-02-02T15:40:55;6.50;99.90
76893;DHT22;65854;51.466;7.260;2023-02-02T15:46:08;6.50;99.90
76893;DHT22;65854;51.466;7.260;2023-02-02T15:48:44;6.50;99.90
76893;DHT22;65854;51.466;7.260;2023-02-02T15:51:16;6.50;99.90
76893;DHT22;65854;51.466;7.260;2023-02-02T15:56:19;6.50;99.90
76893;DHT22;65854;51.466;7.260;2023-02-02T15:58:48;6.50;99.90
76893;DHT22;65854;51.466;7.260;2023-02-02T16:01:17;6.40;99.90
76893;DHT22;65854;51.466;7.260;2023-02-02T16:06:10;6.40;99.90
76893;DHT22;65854;51.466;7.260;2023-02-02T16:08:38;6.40;99.90
76893;DHT22;65854;51.466;7.260;2023-02-02T16:11:30;6.40;99.90
76893;DHT22;65854;51.466;7.260;2023-02-02T16:14:00;6.40;99.90
76893;DHT22;65854;51.466;7.260;2023-02-02T16:16:35;6.40;99.90
76893;DHT22;65854;51.466;7.260;2023-02-02T16:21:27;6.40;99.90
76893;DHT22;65854;51.466;7.260;2023-02-02T16:23:54;6.50;99.90
76893;DHT22;65854;51.466;7.260;2023-02-02T16:26:22;6.50;99.90
76893;DHT22;65854;51.466;7.260;2023-02-02T16:28:49;6.40;99.90
76893;DHT22;65854;51.466;7.260;2023-02-02T16:31:15;6.40;99.90
76893;DHT22;65854;51.466;7.260;2023-02-02T16:33:43;6.40;99.90
76893;DHT22;65854;51.466;7.260;2023-02-02T16:38:45;6.50;99.90
76893;DHT22;65854;51.466;7.260;2023-02-02T16:41:12;6.40;99.90
76893;DHT22;65854;51.466;7.260;2023-02-02T16:43:40;6.40;99.90
76893;DHT22;65854;51.466;7.260;2023-02-02T16:46:11;6.40;99.90
76893;DHT22;65854;51.466;7.260;2023-02-02T16:51:21;6.50;99.90
76893;DHT22;65854;51.466;7.260;2023-02-02T16:53:58;6.50;99.90
76893;DHT22;65854;51.466;7.260;2023-02-02T17:01:41;6.50;99.90
76893;DHT22;65854;51.466;7.260;2023-02-02T17:04:23;6.50;99.90
76893;DHT22;65854;51.466;7.260;2023-02-02T17:06:50;6.50;99.90
76893;DHT22;65854;51.466;7.260;2023-02-02T17:09:30;6.50;99.90
76893;DHT22;65854;51.466;7.260;2023-02-02T17:12:02;6.50;99.90
76893;DHT22;65854;51.466;7.260;2023-02-02T17:14:32;6.50;99.90
76893;DHT22;65854;51.466;7.260;2023-02-02T17:17:00;6.50;99.90
76893;DHT22;65854;51.466;7.260;2023-02-02T17:19:30;6.50;99.90
76893;DHT22;65854;51.466;7.260;2023-02-02T17:21:56;6.50;99.90
76893;DHT22;65854;51.466;7.260;2023-02-02T17:24:24;6.50;99.90
76893;DHT22;65854;51.466;7.260;2023-02-02T17:26:49;6.50;99.90
76893;DHT22;65854;51.466;7.260;2023-02-02T17:29:17;6.50;99.90
76893;DHT22;65854;51.466;7.260;2023-02-02T17:31:44;6.50;99.90
76893;DHT22;65854;51.466;7.260;2023-02-02T17:34:13;6.60;99.90
76893;DHT22;65854;51.466;7.260;2023-02-02T17:36:39;6.60;99.90
76893;DHT22;65854;51.466;7.260;2023-02-02T17:39:05;6.60;99.90
76893;DHT22;65854;51.466;7.260;2023-02-02T17:41:31;6.60;99.90
76893;DHT22;65854;51.466;7.260;2023-02-02T17:43:57;6.60;99.90
76893;DHT22;65854;51.466;7.260;2023-02-02T17:46:23;6.60;99.90
76893;DHT22;65854;51.466;7.260;2023-02-02T17:48:48;6.60;99.90
76893;DHT22;65854;51.466;7.260;2023-02-02T17:51:15;6.60;99.90
76893;DHT22;65854;51.466;7.260;2023-02-02T17:53:41;6.60;99.90
76893;DHT22;65854;51.466;7.260;2023-02-02T17:56:07;6.60;99.90
76893;DHT22;65854;51.466;7.260;2023-02-02T17:58:32;6.60;99.90
76893;DHT22;65854;51.466;7.260;2023-02-02T18:00:58;6.60;99.90
76893;DHT22;65854;51.466;7.260;2023-02-02T18:03:27;6.60;99.90
76893;DHT22;65854;51.466;7.260;2023-02-02T18:05:54;6.60;99.90
76893;DHT22;65854;51.466;7.260;2023-02-02T18:08:22;6.60;99.90
76893;DHT22;65854;51.466;7.260;2023-02-02T18:10:48;6.60;99.90
76893;DHT22;65854;51.466;7.260;2023-02-02T18:13:15;6.60;99.90
76893;DHT22;65854;51.466;7.260;2023-02-02T18:15:41;6.60;99.90
76893;DHT22;65854;51.466;7.260;2023-02-02T18:18:07;6.60;99.90
76893;DHT22;65854;51.466;7.260;2023-02-02T18:20:33;6.60;99.90
76893;DHT22;65854;51.466;7.260;2023-02-02T18:23:00;6.60;99.90
76893;DHT22;65854;51.466;7.260;2023-02-02T18:25:26;6.60;99.90
76893;DHT22;65854;51.466;7.260;2023-02-02T18:27:52;6.70;99.90
76893;DHT22;65854;51.466;7.260;2023-02-02T18:30:18;6.60;99.90
76893;DHT22;65854;51.466;7.260;2023-02-02T18:32:44;6.60;99.90
76893;DHT22;65854;51.466;7.260;2023-02-02T18:35:10;6.60;99.90
76893;DHT22;65854;51.466;7.260;2023-02-02T18:37:37;6.60;99.90